sensor_id;sensor_type;location;lat;lon;timestamp;P1;durP1;ratioP1;P2;durP2;ratioP2
6406;SDS011;3236;51.022;6.818;2023-04-24T00:01:29;1.77;;;1.02;;
6406;SDS011;3236;51.022;6.818;2023-04-24T00:03:56;1.00;;;0.90;;
6406;SDS011;3236;51.022;6.818;2023-04-24T00:06:24;2.58;;;1.10;;
6406;SDS011;3236;51.022;6.818;2023-04-24T00:08:59;1.65;;;0.90;;
6406;SDS011;3236;51.022;6.818;2023-04-24T00:11:27;0.80;;;0.80;;
6406;SDS011;3236;51.022;6.818;2023-04-24T00:13:54;2.50;;;1.13;;
6406;SDS011;3236;51.022;6.818;2023-04-24T00:16:25;1.38;;;0.98;;
6406;SDS011;3236;51.022;6.818;2023-04-24T00:18:53;0.80;;;0.80;;
6406;SDS011;3236;51.022;6.818;2023-04-24T00:21:20;3.72;;;1.00;;
6406;SDS011;3236;51.022;6.818;2023-04-24T00:23:50;0.82;;;0.82;;
6406;SDS011;3236;51.022;6.818;2023-04-24T00:26:19;3.08;;;0.95;;
6406;SDS011;3236;51.022;6.818;2023-04-24T00:28:49;1.30;;;1.00;;
6406;SDS011;3236;51.022;6.818;2023-04-24T00:31:17;1.58;;;1.10;;
6406;SDS011;3236;51.022;6.818;2023-04-24T00:33:44;1.05;;;0.90;;
6406;SDS011;3236;51.022;6.818;2023-04-24T00:36:16;1.15;;;1.00;;
6406;SDS011;3236;51.022;6.818;2023-04-24T00:38:45;6.25;;;1.23;;
6406;SDS011;3236;51.022;6.818;2023-04-24T00:41:13;2.45;;;1.20;;
6406;SDS011;3236;51.022;6.818;2023-04-24T00:43:42;2.83;;;1.05;;
6406;SDS011;3236;51.022;6.818;2023-04-24T00:46:11;1.42;;;1.05;;
6406;SDS011;3236;51.022;6.818;2023-04-24T00:48:40;2.97;;;1.48;;
6406;SDS011;3236;51.022;6.818;2023-04-24T00:51:07;1.63;;;1.20;;
6406;SDS011;3236;51.022;6.818;2023-04-24T00:53:34;1.45;;;1.02;;
6406;SDS011;3236;51.022;6.818;2023-04-24T00:56:02;2.13;;;1.33;;
6406;SDS011;3236;51.022;6.818;2023-04-24T00:58:30;1.10;;;1.00;;
6406;SDS011;3236;51.022;6.818;2023-04-24T01:01:04;1.15;;;0.82;;
6406;SDS011;3236;51.022;6.818;2023-04-24T01:03:46;6.32;;;1.42;;
6406;SDS011;3236;51.022;6.818;2023-04-24T01:06:16;2.88;;;1.30;;
6406;SDS011;3236;51.022;6.818;2023-04-24T01:08:44;1.58;;;1.38;;
6406;SDS011;3236;51.022;6.818;2023-04-24T01:11:12;1.63;;;1.40;;
6406;SDS011;3236;51.022;6.818;2023-04-24T01:13:43;1.63;;;1.40;;
6406;SDS011;3236;51.022;6.818;2023-04-24T01:16:11;1.95;;;1.52;;
6406;SDS011;3236;51.022;6.818;2023-04-24T01:18:39;1.40;;;1.30;;
6406;SDS011;3236;51.022;6.818;2023-04-24T01:21:09;2.42;;;1.58;;
6406;SDS011;3236;51.022;6.818;2023-04-24T01:23:41;3.93;;;1.80;;
6406;SDS011;3236;51.022;6.818;2023-04-24T01:26:08;8.10;;;2.42;;
6406;SDS011;3236;51.022;6.818;2023-04-24T01:28:37;4.13;;;2.63;;
6406;SDS011;3236;51.022;6.818;2023-04-24T01:31:04;5.40;;;2.35;;
6406;SDS011;3236;51.022;6.818;2023-04-24T01:33:31;9.98;;;3.58;;
6406;SDS011;3236;51.022;6.818;2023-04-24T01:36:01;9.50;;;4.03;;
6406;SDS011;3236;51.022;6.818;2023-04-24T01:38:28;7.65;;;4.20;;
6406;SDS011;3236;51.022;6.818;2023-04-24T01:40:59;7.22;;;4.68;;
6406;SDS011;3236;51.022;6.818;2023-04-24T01:43:26;10.82;;;4.72;;
6406;SDS011;3236;51.022;6.818;2023-04-24T01:45:54;9.88;;;5.03;;
6406;SDS011;3236;51.022;6.818;2023-04-24T01:48:21;6.20;;;3.45;;
6406;SDS011;3236;51.022;6.818;2023-04-24T01:50:52;6.55;;;3.92;;
6406;SDS011;3236;51.022;6.818;2023-04-24T01:53:19;7.03;;;4.07;;
6406;SDS011;3236;51.022;6.818;2023-04-24T01:55:46;6.82;;;4.60;;
6406;SDS011;3236;51.022;6.818;2023-04-24T01:58:14;4.82;;;3.55;;
6406;SDS011;3236;51.022;6.818;2023-04-24T02:00:42;9.40;;;4.63;;
6406;SDS011;3236;51.022;6.818;2023-04-24T02:03:08;8.95;;;3.20;;
6406;SDS011;3236;51.022;6.818;2023-04-24T02:05:35;7.00;;;4.88;;
6406;SDS011;3236;51.022;6.818;2023-04-24T02:08:02;8.55;;;3.45;;
6406;SDS011;3236;51.022;6.818;2023-04-24T02:10:30;11.02;;;6.00;;
6406;SDS011;3236;51.022;6.818;2023-04-24T02:13:00;10.13;;;5.75;;
6406;SDS011;3236;51.022;6.818;2023-04-24T02:15:31;11.68;;;6.20;;
6406;SDS011;3236;51.022;6.818;2023-04-24T02:17:58;8.07;;;5.20;;
6406;SDS011;3236;51.022;6.818;2023-04-24T02:23:21;11.05;;;5.85;;
6406;SDS011;3236;51.022;6.818;2023-04-24T02:25:48;15.85;;;6.18;;
6406;SDS011;3236;51.022;6.818;2023-04-24T02:28:15;7.50;;;4.70;;
6406;SDS011;3236;51.022;6.818;2023-04-24T02:30:44;7.85;;;4.18;;
6406;SDS011;3236;51.022;6.818;2023-04-24T02:33:11;14.35;;;6.03;;
6406;SDS011;3236;51.022;6.818;2023-04-24T02:35:38;18.48;;;6.07;;
6406;SDS011;3236;51.022;6.818;2023-04-24T02:38:05;9.13;;;5.43;;
6406;SDS011;3236;51.022;6.818;2023-04-24T02:40:35;10.40;;;5.75;;
6406;SDS011;3236;51.022;6.818;2023-04-24T02:43:02;11.50;;;6.03;;
6406;SDS011;3236;51.022;6.818;2023-04-24T02:45:29;13.55;;;6.25;;
6406;SDS011;3236;51.022;6.818;2023-04-24T02:48:01;10.07;;;5.70;;
6406;SDS011;3236;51.022;6.818;2023-04-24T02:50:28;14.70;;;5.85;;
6406;SDS011;3236;51.022;6.818;2023-04-24T02:52:55;15.95;;;5.35;;
6406;SDS011;3236;51.022;6.818;2023-04-24T02:55:22;11.93;;;6.00;;
6406;SDS011;3236;51.022;6.818;2023-04-24T02:57:50;12.60;;;5.38;;
6406;SDS011;3236;51.022;6.818;2023-04-24T03:00:17;9.13;;;4.82;;
6406;SDS011;3236;51.022;6.818;2023-04-24T03:02:44;7.60;;;4.88;;
6406;SDS011;3236;51.022;6.818;2023-04-24T03:05:13;13.43;;;6.35;;
6406;SDS011;3236;51.022;6.818;2023-04-24T03:07:40;13.60;;;5.80;;
6406;SDS011;3236;51.022;6.818;2023-04-24T03:10:11;9.57;;;5.90;;
6406;SDS011;3236;51.022;6.818;2023-04-24T03:12:41;10.93;;;7.05;;
6406;SDS011;3236;51.022;6.818;2023-04-24T03:15:13;7.55;;;5.35;;
6406;SDS011;3236;51.022;6.818;2023-04-24T03:17:40;13.55;;;6.80;;
6406;SDS011;3236;51.022;6.818;2023-04-24T03:20:08;18.90;;;4.45;;
6406;SDS011;3236;51.022;6.818;2023-04-24T03:22:37;8.63;;;4.63;;
6406;SDS011;3236;51.022;6.818;2023-04-24T03:25:04;9.00;;;5.60;;
6406;SDS011;3236;51.022;6.818;2023-04-24T03:27:33;8.95;;;5.85;;
6406;SDS011;3236;51.022;6.818;2023-04-24T03:30:00;7.70;;;4.03;;
6406;SDS011;3236;51.022;6.818;2023-04-24T03:32:28;7.47;;;4.28;;
6406;SDS011;3236;51.022;6.818;2023-04-24T03:34:57;7.55;;;4.78;;
6406;SDS011;3236;51.022;6.818;2023-04-24T03:37:24;5.20;;;4.03;;
6406;SDS011;3236;51.022;6.818;2023-04-24T03:39:53;6.95;;;4.30;;
6406;SDS011;3236;51.022;6.818;2023-04-24T03:42:20;14.40;;;6.97;;
6406;SDS011;3236;51.022;6.818;2023-04-24T03:44:47;9.68;;;5.80;;
6406;SDS011;3236;51.022;6.818;2023-04-24T03:47:14;10.55;;;5.75;;
6406;SDS011;3236;51.022;6.818;2023-04-24T03:49:41;14.00;;;6.78;;
6406;SDS011;3236;51.022;6.818;2023-04-24T03:52:08;4.63;;;3.20;;
6406;SDS011;3236;51.022;6.818;2023-04-24T03:54:35;9.43;;;4.82;;
6406;SDS011;3236;51.022;6.818;2023-04-24T03:57:03;9.27;;;5.32;;
6406;SDS011;3236;51.022;6.818;2023-04-24T03:59:30;13.23;;;6.85;;
6406;SDS011;3236;51.022;6.818;2023-04-24T04:01:57;12.15;;;5.30;;
6406;SDS011;3236;51.022;6.818;2023-04-24T04:04:24;12.73;;;5.82;;
6406;SDS011;3236;51.022;6.818;2023-04-24T04:06:52;9.35;;;4.90;;
6406;SDS011;3236;51.022;6.818;2023-04-24T04:09:19;7.22;;;4.07;;
6406;SDS011;3236;51.022;6.818;2023-04-24T04:11:46;12.70;;;6.20;;
6406;SDS011;3236;51.022;6.818;2023-04-24T04:14:14;11.02;;;5.60;;
6406;SDS011;3236;51.022;6.818;2023-04-24T04:16:42;11.05;;;5.90;;
6406;SDS011;3236;51.022;6.818;2023-04-24T04:19:10;7.80;;;4.22;;
6406;SDS011;3236;51.022;6.818;2023-04-24T04:21:40;9.32;;;4.50;;
6406;SDS011;3236;51.022;6.818;2023-04-24T04:24:07;9.25;;;4.78;;
6406;SDS011;3236;51.022;6.818;2023-04-24T04:26:34;7.05;;;4.53;;
6406;SDS011;3236;51.022;6.818;2023-04-24T04:29:03;9.52;;;4.70;;
6406;SDS011;3236;51.022;6.818;2023-04-24T04:31:33;8.15;;;5.75;;
6406;SDS011;3236;51.022;6.818;2023-04-24T04:34:00;5.05;;;3.38;;
6406;SDS011;3236;51.022;6.818;2023-04-24T04:36:27;5.35;;;3.17;;
6406;SDS011;3236;51.022;6.818;2023-04-24T04:38:55;7.47;;;4.00;;
6406;SDS011;3236;51.022;6.818;2023-04-24T04:41:24;9.00;;;4.72;;
6406;SDS011;3236;51.022;6.818;2023-04-24T04:43:54;8.07;;;5.25;;
6406;SDS011;3236;51.022;6.818;2023-04-24T04:46:23;9.88;;;5.45;;
6406;SDS011;3236;51.022;6.818;2023-04-24T04:48:53;8.32;;;5.22;;
6406;SDS011;3236;51.022;6.818;2023-04-24T04:51:21;8.85;;;5.43;;
6406;SDS011;3236;51.022;6.818;2023-04-24T04:53:48;6.40;;;4.05;;
6406;SDS011;3236;51.022;6.818;2023-04-24T04:56:15;10.85;;;5.18;;
6406;SDS011;3236;51.022;6.818;2023-04-24T04:58:42;9.93;;;4.00;;
6406;SDS011;3236;51.022;6.818;2023-04-24T05:01:09;9.55;;;5.10;;
6406;SDS011;3236;51.022;6.818;2023-04-24T05:03:36;10.00;;;3.95;;
6406;SDS011;3236;51.022;6.818;2023-04-24T05:06:05;6.72;;;4.18;;
6406;SDS011;3236;51.022;6.818;2023-04-24T05:08:33;8.90;;;4.80;;
6406;SDS011;3236;51.022;6.818;2023-04-24T05:11:00;7.15;;;4.55;;
6406;SDS011;3236;51.022;6.818;2023-04-24T05:13:27;8.70;;;4.28;;
6406;SDS011;3236;51.022;6.818;2023-04-24T05:15:54;7.05;;;3.72;;
6406;SDS011;3236;51.022;6.818;2023-04-24T05:18:21;10.80;;;5.50;;
6406;SDS011;3236;51.022;6.818;2023-04-24T05:20:48;6.68;;;4.35;;
6406;SDS011;3236;51.022;6.818;2023-04-24T05:23:19;5.18;;;3.58;;
6406;SDS011;3236;51.022;6.818;2023-04-24T05:25:48;6.40;;;4.82;;
6406;SDS011;3236;51.022;6.818;2023-04-24T05:28:15;12.10;;;5.68;;
6406;SDS011;3236;51.022;6.818;2023-04-24T05:30:42;6.28;;;4.63;;
6406;SDS011;3236;51.022;6.818;2023-04-24T05:33:09;8.93;;;6.07;;
6406;SDS011;3236;51.022;6.818;2023-04-24T05:35:36;6.15;;;4.55;;
6406;SDS011;3236;51.022;6.818;2023-04-24T05:38:03;10.30;;;4.35;;
6406;SDS011;3236;51.022;6.818;2023-04-24T05:40:32;10.07;;;5.22;;
6406;SDS011;3236;51.022;6.818;2023-04-24T05:42:59;17.55;;;5.65;;
6406;SDS011;3236;51.022;6.818;2023-04-24T05:45:26;14.05;;;5.22;;
6406;SDS011;3236;51.022;6.818;2023-04-24T05:47:53;6.68;;;4.45;;
6406;SDS011;3236;51.022;6.818;2023-04-24T05:50:20;8.93;;;6.53;;
6406;SDS011;3236;51.022;6.818;2023-04-24T05:52:47;9.20;;;5.38;;
6406;SDS011;3236;51.022;6.818;2023-04-24T05:55:14;7.07;;;4.40;;
6406;SDS011;3236;51.022;6.818;2023-04-24T05:57:44;7.43;;;4.75;;
6406;SDS011;3236;51.022;6.818;2023-04-24T06:00:12;7.45;;;4.57;;
6406;SDS011;3236;51.022;6.818;2023-04-24T06:02:41;7.97;;;4.85;;
6406;SDS011;3236;51.022;6.818;2023-04-24T06:05:08;5.93;;;2.75;;
6406;SDS011;3236;51.022;6.818;2023-04-24T06:07:35;5.88;;;3.33;;
6406;SDS011;3236;51.022;6.818;2023-04-24T06:10:02;5.18;;;2.22;;
6406;SDS011;3236;51.022;6.818;2023-04-24T06:12:30;2.47;;;2.05;;
6406;SDS011;3236;51.022;6.818;2023-04-24T06:15:01;4.63;;;3.42;;
6406;SDS011;3236;51.022;6.818;2023-04-24T06:19:58;3.60;;;2.97;;
6406;SDS011;3236;51.022;6.818;2023-04-24T06:22:25;2.45;;;2.10;;
6406;SDS011;3236;51.022;6.818;2023-04-24T06:24:52;4.82;;;2.58;;
6406;SDS011;3236;51.022;6.818;2023-04-24T06:27:19;6.35;;;3.30;;
6406;SDS011;3236;51.022;6.818;2023-04-24T06:29:46;4.28;;;2.92;;
6406;SDS011;3236;51.022;6.818;2023-04-24T06:32:20;5.03;;;3.10;;
6406;SDS011;3236;51.022;6.818;2023-04-24T06:34:48;4.30;;;2.53;;
6406;SDS011;3236;51.022;6.818;2023-04-24T06:37:15;2.60;;;2.40;;
6406;SDS011;3236;51.022;6.818;2023-04-24T06:39:42;7.43;;;3.22;;
6406;SDS011;3236;51.022;6.818;2023-04-24T06:42:09;10.25;;;2.05;;
6406;SDS011;3236;51.022;6.818;2023-04-24T06:44:36;4.20;;;2.15;;
6406;SDS011;3236;51.022;6.818;2023-04-24T06:47:06;3.55;;;2.75;;
6406;SDS011;3236;51.022;6.818;2023-04-24T06:49:37;7.82;;;1.85;;
6406;SDS011;3236;51.022;6.818;2023-04-24T06:52:05;6.00;;;2.97;;
6406;SDS011;3236;51.022;6.818;2023-04-24T06:54:33;3.35;;;2.25;;
6406;SDS011;3236;51.022;6.818;2023-04-24T06:57:00;4.80;;;1.98;;
6406;SDS011;3236;51.022;6.818;2023-04-24T06:59:28;2.38;;;1.40;;
6406;SDS011;3236;51.022;6.818;2023-04-24T07:01:56;5.35;;;2.72;;
6406;SDS011;3236;51.022;6.818;2023-04-24T07:04:23;3.20;;;2.50;;
6406;SDS011;3236;51.022;6.818;2023-04-24T07:06:52;2.75;;;1.90;;
6406;SDS011;3236;51.022;6.818;2023-04-24T07:09:21;3.47;;;1.58;;
6406;SDS011;3236;51.022;6.818;2023-04-24T07:11:48;2.72;;;1.58;;
6406;SDS011;3236;51.022;6.818;2023-04-24T07:14:16;4.30;;;3.13;;
6406;SDS011;3236;51.022;6.818;2023-04-24T07:16:43;3.10;;;2.33;;
6406;SDS011;3236;51.022;6.818;2023-04-24T07:19:14;2.97;;;2.28;;
6406;SDS011;3236;51.022;6.818;2023-04-24T07:21:41;6.05;;;2.95;;
6406;SDS011;3236;51.022;6.818;2023-04-24T07:24:11;4.93;;;2.50;;
6406;SDS011;3236;51.022;6.818;2023-04-24T07:26:38;2.80;;;2.05;;
6406;SDS011;3236;51.022;6.818;2023-04-24T07:29:05;4.30;;;2.97;;
6406;SDS011;3236;51.022;6.818;2023-04-24T07:31:32;3.92;;;2.63;;
6406;SDS011;3236;51.022;6.818;2023-04-24T07:33:59;3.55;;;2.35;;
6406;SDS011;3236;51.022;6.818;2023-04-24T07:36:27;5.13;;;2.42;;
6406;SDS011;3236;51.022;6.818;2023-04-24T07:38:54;3.47;;;2.28;;
6406;SDS011;3236;51.022;6.818;2023-04-24T07:41:24;1.50;;;1.40;;
6406;SDS011;3236;51.022;6.818;2023-04-24T07:43:52;4.00;;;1.60;;
6406;SDS011;3236;51.022;6.818;2023-04-24T07:46:19;1.90;;;1.60;;
6406;SDS011;3236;51.022;6.818;2023-04-24T07:48:48;3.22;;;1.45;;
6406;SDS011;3236;51.022;6.818;2023-04-24T07:51:15;1.95;;;1.77;;
6406;SDS011;3236;51.022;6.818;2023-04-24T07:53:45;2.47;;;1.83;;
6406;SDS011;3236;51.022;6.818;2023-04-24T07:56:12;3.53;;;2.53;;
6406;SDS011;3236;51.022;6.818;2023-04-24T07:58:41;2.47;;;2.28;;
6406;SDS011;3236;51.022;6.818;2023-04-24T08:01:09;1.25;;;1.08;;
6406;SDS011;3236;51.022;6.818;2023-04-24T08:03:37;2.05;;;1.38;;
6406;SDS011;3236;51.022;6.818;2023-04-24T08:06:05;2.72;;;1.58;;
6406;SDS011;3236;51.022;6.818;2023-04-24T08:08:32;1.80;;;1.60;;
6406;SDS011;3236;51.022;6.818;2023-04-24T08:11:01;4.93;;;2.88;;
6406;SDS011;3236;51.022;6.818;2023-04-24T08:13:28;4.00;;;2.10;;
6406;SDS011;3236;51.022;6.818;2023-04-24T08:15:57;15.60;;;4.68;;
6406;SDS011;3236;51.022;6.818;2023-04-24T08:18:24;3.92;;;2.80;;
6406;SDS011;3236;51.022;6.818;2023-04-24T08:20:52;3.22;;;2.20;;
6406;SDS011;3236;51.022;6.818;2023-04-24T08:23:22;2.60;;;1.75;;
6406;SDS011;3236;51.022;6.818;2023-04-24T08:25:49;3.55;;;1.83;;
6406;SDS011;3236;51.022;6.818;2023-04-24T08:28:16;5.15;;;1.90;;
6406;SDS011;3236;51.022;6.818;2023-04-24T08:30:45;3.05;;;1.98;;
6406;SDS011;3236;51.022;6.818;2023-04-24T08:33:14;2.88;;;1.98;;
6406;SDS011;3236;51.022;6.818;2023-04-24T08:35:42;1.67;;;1.50;;
6406;SDS011;3236;51.022;6.818;2023-04-24T08:38:09;2.63;;;2.08;;
6406;SDS011;3236;51.022;6.818;2023-04-24T08:40:36;3.53;;;2.00;;
6406;SDS011;3236;51.022;6.818;2023-04-24T08:43:04;5.35;;;2.35;;
6406;SDS011;3236;51.022;6.818;2023-04-24T08:45:32;3.97;;;3.08;;
6406;SDS011;3236;51.022;6.818;2023-04-24T08:47:59;3.67;;;3.28;;
6406;SDS011;3236;51.022;6.818;2023-04-24T08:50:28;3.28;;;2.30;;
6406;SDS011;3236;51.022;6.818;2023-04-24T08:52:58;5.50;;;2.67;;
6406;SDS011;3236;51.022;6.818;2023-04-24T08:55:25;2.38;;;1.67;;
6406;SDS011;3236;51.022;6.818;2023-04-24T08:57:53;6.65;;;2.67;;
6406;SDS011;3236;51.022;6.818;2023-04-24T09:00:30;5.47;;;3.45;;
6406;SDS011;3236;51.022;6.818;2023-04-24T09:02:57;4.38;;;3.38;;
6406;SDS011;3236;51.022;6.818;2023-04-24T09:05:31;4.45;;;2.72;;
6406;SDS011;3236;51.022;6.818;2023-04-24T09:07:59;4.95;;;3.10;;
6406;SDS011;3236;51.022;6.818;2023-04-24T09:10:30;5.28;;;3.45;;
6406;SDS011;3236;51.022;6.818;2023-04-24T09:12:57;4.70;;;3.80;;
6406;SDS011;3236;51.022;6.818;2023-04-24T09:15:27;4.28;;;2.95;;
6406;SDS011;3236;51.022;6.818;2023-04-24T09:17:55;6.18;;;4.30;;
6406;SDS011;3236;51.022;6.818;2023-04-24T09:20:22;7.88;;;4.40;;
6406;SDS011;3236;51.022;6.818;2023-04-24T09:22:52;4.35;;;3.10;;
6406;SDS011;3236;51.022;6.818;2023-04-24T09:25:25;6.18;;;4.47;;
6406;SDS011;3236;51.022;6.818;2023-04-24T09:28:00;10.27;;;5.90;;
6406;SDS011;3236;51.022;6.818;2023-04-24T09:30:30;3.60;;;3.08;;
6406;SDS011;3236;51.022;6.818;2023-04-24T09:33:09;7.68;;;4.53;;
6406;SDS011;3236;51.022;6.818;2023-04-24T09:35:40;7.95;;;5.00;;
6406;SDS011;3236;51.022;6.818;2023-04-24T09:38:09;11.48;;;5.32;;
6406;SDS011;3236;51.022;6.818;2023-04-24T09:40:36;9.02;;;4.28;;
6406;SDS011;3236;51.022;6.818;2023-04-24T09:43:03;9.93;;;5.25;;
6406;SDS011;3236;51.022;6.818;2023-04-24T09:45:37;15.95;;;7.03;;
6406;SDS011;3236;51.022;6.818;2023-04-24T09:48:05;18.80;;;7.95;;
6406;SDS011;3236;51.022;6.818;2023-04-24T09:50:38;15.20;;;7.90;;
6406;SDS011;3236;51.022;6.818;2023-04-24T09:53:14;16.92;;;9.05;;
6406;SDS011;3236;51.022;6.818;2023-04-24T09:55:42;17.02;;;7.00;;
6406;SDS011;3236;51.022;6.818;2023-04-24T09:58:13;11.25;;;7.45;;
6406;SDS011;3236;51.022;6.818;2023-04-24T10:00:40;10.02;;;6.07;;
6406;SDS011;3236;51.022;6.818;2023-04-24T10:03:07;9.00;;;5.95;;
6406;SDS011;3236;51.022;6.818;2023-04-24T10:05:35;17.17;;;6.07;;
6406;SDS011;3236;51.022;6.818;2023-04-24T10:08:04;14.05;;;7.05;;
6406;SDS011;3236;51.022;6.818;2023-04-24T10:10:41;9.60;;;5.25;;
6406;SDS011;3236;51.022;6.818;2023-04-24T10:13:10;8.45;;;4.10;;
6406;SDS011;3236;51.022;6.818;2023-04-24T10:15:41;6.40;;;4.30;;
6406;SDS011;3236;51.022;6.818;2023-04-24T10:18:09;10.53;;;6.40;;
6406;SDS011;3236;51.022;6.818;2023-04-24T10:20:37;9.50;;;5.75;;
6406;SDS011;3236;51.022;6.818;2023-04-24T10:23:07;6.63;;;4.37;;
6406;SDS011;3236;51.022;6.818;2023-04-24T10:25:38;10.48;;;5.32;;
6406;SDS011;3236;51.022;6.818;2023-04-24T10:28:07;12.35;;;4.25;;
6406;SDS011;3236;51.022;6.818;2023-04-24T10:30:42;7.40;;;4.43;;
6406;SDS011;3236;51.022;6.818;2023-04-24T10:33:09;11.15;;;3.95;;
6406;SDS011;3236;51.022;6.818;2023-04-24T10:35:39;10.90;;;3.70;;
6406;SDS011;3236;51.022;6.818;2023-04-24T10:38:09;8.43;;;3.35;;
6406;SDS011;3236;51.022;6.818;2023-04-24T10:40:42;8.32;;;3.15;;
6406;SDS011;3236;51.022;6.818;2023-04-24T10:43:09;4.40;;;2.78;;
6406;SDS011;3236;51.022;6.818;2023-04-24T10:45:37;11.93;;;3.45;;
6406;SDS011;3236;51.022;6.818;2023-04-24T10:48:05;6.93;;;3.13;;
6406;SDS011;3236;51.022;6.818;2023-04-24T10:50:42;11.00;;;3.58;;
6406;SDS011;3236;51.022;6.818;2023-04-24T10:53:15;11.48;;;3.63;;
6406;SDS011;3236;51.022;6.818;2023-04-24T10:55:45;8.27;;;3.85;;
6406;SDS011;3236;51.022;6.818;2023-04-24T10:58:14;7.22;;;3.97;;
6406;SDS011;3236;51.022;6.818;2023-04-24T11:00:55;7.90;;;3.30;;
6406;SDS011;3236;51.022;6.818;2023-04-24T11:03:24;11.37;;;3.73;;
6406;SDS011;3236;51.022;6.818;2023-04-24T11:05:55;10.75;;;2.78;;
6406;SDS011;3236;51.022;6.818;2023-04-24T11:08:24;6.73;;;1.77;;
6406;SDS011;3236;51.022;6.818;2023-04-24T11:10:58;8.68;;;3.35;;
6406;SDS011;3236;51.022;6.818;2023-04-24T11:13:27;10.63;;;3.08;;
6406;SDS011;3236;51.022;6.818;2023-04-24T11:16:14;14.48;;;3.17;;
6406;SDS011;3236;51.022;6.818;2023-04-24T11:18:49;10.48;;;4.47;;
6406;SDS011;3236;51.022;6.818;2023-04-24T11:21:24;7.75;;;3.60;;
6406;SDS011;3236;51.022;6.818;2023-04-24T11:23:51;9.63;;;4.10;;
6406;SDS011;3236;51.022;6.818;2023-04-24T11:26:22;9.68;;;3.92;;
6406;SDS011;3236;51.022;6.818;2023-04-24T11:28:55;10.85;;;4.20;;
6406;SDS011;3236;51.022;6.818;2023-04-24T11:31:36;17.35;;;3.88;;
6406;SDS011;3236;51.022;6.818;2023-04-24T11:34:08;12.10;;;3.38;;
6406;SDS011;3236;51.022;6.818;2023-04-24T11:36:37;10.43;;;3.63;;
6406;SDS011;3236;51.022;6.818;2023-04-24T11:39:04;12.02;;;4.30;;
6406;SDS011;3236;51.022;6.818;2023-04-24T11:41:33;11.05;;;4.18;;
6406;SDS011;3236;51.022;6.818;2023-04-24T11:44:01;8.48;;;3.53;;
6406;SDS011;3236;51.022;6.818;2023-04-24T11:46:29;12.90;;;4.70;;
6406;SDS011;3236;51.022;6.818;2023-04-24T11:48:57;13.68;;;4.40;;
6406;SDS011;3236;51.022;6.818;2023-04-24T11:51:25;9.00;;;3.28;;
6406;SDS011;3236;51.022;6.818;2023-04-24T11:53:55;9.10;;;3.67;;
6406;SDS011;3236;51.022;6.818;2023-04-24T11:56:22;9.55;;;3.97;;
6406;SDS011;3236;51.022;6.818;2023-04-24T11:58:53;12.70;;;4.30;;
6406;SDS011;3236;51.022;6.818;2023-04-24T12:01:20;13.93;;;4.37;;
6406;SDS011;3236;51.022;6.818;2023-04-24T12:03:48;17.25;;;3.97;;
6406;SDS011;3236;51.022;6.818;2023-04-24T12:06:16;9.20;;;4.90;;
6406;SDS011;3236;51.022;6.818;2023-04-24T12:08:48;9.73;;;4.35;;
6406;SDS011;3236;51.022;6.818;2023-04-24T12:11:26;8.65;;;4.28;;
6406;SDS011;3236;51.022;6.818;2023-04-24T12:13:56;11.32;;;4.90;;
6406;SDS011;3236;51.022;6.818;2023-04-24T12:16:27;9.55;;;4.70;;
6406;SDS011;3236;51.022;6.818;2023-04-24T12:21:25;14.35;;;5.80;;
6406;SDS011;3236;51.022;6.818;2023-04-24T12:23:55;14.23;;;5.30;;
6406;SDS011;3236;51.022;6.818;2023-04-24T12:26:26;15.43;;;4.68;;
6406;SDS011;3236;51.022;6.818;2023-04-24T12:29:01;11.73;;;4.82;;
6406;SDS011;3236;51.022;6.818;2023-04-24T12:31:29;7.57;;;3.42;;
6406;SDS011;3236;51.022;6.818;2023-04-24T12:34:00;4.15;;;2.15;;
6406;SDS011;3236;51.022;6.818;2023-04-24T12:36:36;5.43;;;3.15;;
6406;SDS011;3236;51.022;6.818;2023-04-24T12:39:06;4.95;;;2.75;;
6406;SDS011;3236;51.022;6.818;2023-04-24T12:41:49;8.07;;;2.78;;
6406;SDS011;3236;51.022;6.818;2023-04-24T12:44:19;8.30;;;3.10;;
6406;SDS011;3236;51.022;6.818;2023-04-24T12:46:46;7.07;;;3.10;;
6406;SDS011;3236;51.022;6.818;2023-04-24T12:49:13;8.25;;;3.10;;
6406;SDS011;3236;51.022;6.818;2023-04-24T12:51:40;8.57;;;3.00;;
6406;SDS011;3236;51.022;6.818;2023-04-24T12:54:08;9.23;;;3.20;;
6406;SDS011;3236;51.022;6.818;2023-04-24T12:56:35;11.75;;;3.00;;
6406;SDS011;3236;51.022;6.818;2023-04-24T12:59:04;7.55;;;3.17;;
6406;SDS011;3236;51.022;6.818;2023-04-24T13:01:35;15.55;;;3.85;;
6406;SDS011;3236;51.022;6.818;2023-04-24T13:04:03;9.40;;;3.08;;
6406;SDS011;3236;51.022;6.818;2023-04-24T13:06:30;5.80;;;3.25;;
6406;SDS011;3236;51.022;6.818;2023-04-24T13:08:57;9.35;;;3.30;;
6406;SDS011;3236;51.022;6.818;2023-04-24T13:11:34;9.45;;;3.10;;
6406;SDS011;3236;51.022;6.818;2023-04-24T13:14:07;9.40;;;3.28;;
6406;SDS011;3236;51.022;6.818;2023-04-24T13:16:35;4.45;;;2.10;;
6406;SDS011;3236;51.022;6.818;2023-04-24T13:19:03;2.88;;;1.90;;
6406;SDS011;3236;51.022;6.818;2023-04-24T13:21:39;12.90;;;2.60;;
6406;SDS011;3236;51.022;6.818;2023-04-24T13:24:09;8.98;;;2.60;;
6406;SDS011;3236;51.022;6.818;2023-04-24T13:26:38;7.50;;;2.53;;
6406;SDS011;3236;51.022;6.818;2023-04-24T13:29:05;3.40;;;2.35;;
6406;SDS011;3236;51.022;6.818;2023-04-24T13:31:35;6.90;;;2.55;;
6406;SDS011;3236;51.022;6.818;2023-04-24T13:34:03;6.90;;;3.08;;
6406;SDS011;3236;51.022;6.818;2023-04-24T13:36:30;6.68;;;2.55;;
6406;SDS011;3236;51.022;6.818;2023-04-24T13:38:57;5.07;;;2.38;;
6406;SDS011;3236;51.022;6.818;2023-04-24T13:41:25;6.25;;;2.53;;
6406;SDS011;3236;51.022;6.818;2023-04-24T13:43:52;8.65;;;3.22;;
6406;SDS011;3236;51.022;6.818;2023-04-24T13:46:20;6.90;;;2.55;;
6406;SDS011;3236;51.022;6.818;2023-04-24T13:48:49;8.23;;;3.05;;
6406;SDS011;3236;51.022;6.818;2023-04-24T13:51:16;10.25;;;2.90;;
6406;SDS011;3236;51.022;6.818;2023-04-24T13:53:43;3.42;;;2.20;;
6406;SDS011;3236;51.022;6.818;2023-04-24T13:56:11;4.78;;;2.55;;
6406;SDS011;3236;51.022;6.818;2023-04-24T13:58:42;5.28;;;2.65;;
6406;SDS011;3236;51.022;6.818;2023-04-24T14:01:10;8.27;;;3.50;;
6406;SDS011;3236;51.022;6.818;2023-04-24T14:03:37;6.85;;;3.35;;
6406;SDS011;3236;51.022;6.818;2023-04-24T14:06:12;5.07;;;2.85;;
6406;SDS011;3236;51.022;6.818;2023-04-24T14:08:40;12.70;;;3.35;;
6406;SDS011;3236;51.022;6.818;2023-04-24T14:11:08;8.48;;;2.60;;
6406;SDS011;3236;51.022;6.818;2023-04-24T14:13:35;5.53;;;2.85;;
6406;SDS011;3236;51.022;6.818;2023-04-24T14:16:04;6.25;;;3.30;;
6406;SDS011;3236;51.022;6.818;2023-04-24T14:18:31;4.50;;;2.63;;
6406;SDS011;3236;51.022;6.818;2023-04-24T14:21:01;3.83;;;2.38;;
6406;SDS011;3236;51.022;6.818;2023-04-24T14:23:30;12.00;;;3.65;;
6406;SDS011;3236;51.022;6.818;2023-04-24T14:25:57;5.78;;;3.35;;
6406;SDS011;3236;51.022;6.818;2023-04-24T14:28:24;7.85;;;2.60;;
6406;SDS011;3236;51.022;6.818;2023-04-24T14:30:52;5.75;;;2.80;;
6406;SDS011;3236;51.022;6.818;2023-04-24T14:33:19;4.43;;;2.58;;
6406;SDS011;3236;51.022;6.818;2023-04-24T14:35:46;4.55;;;2.53;;
6406;SDS011;3236;51.022;6.818;2023-04-24T14:38:14;5.93;;;2.78;;
6406;SDS011;3236;51.022;6.818;2023-04-24T14:40:42;6.47;;;2.42;;
6406;SDS011;3236;51.022;6.818;2023-04-24T14:43:10;5.22;;;2.70;;
6406;SDS011;3236;51.022;6.818;2023-04-24T14:45:37;4.72;;;1.95;;
6406;SDS011;3236;51.022;6.818;2023-04-24T14:48:05;6.78;;;2.17;;
6406;SDS011;3236;51.022;6.818;2023-04-24T14:50:34;5.22;;;2.55;;
6406;SDS011;3236;51.022;6.818;2023-04-24T14:53:01;3.50;;;2.00;;
6406;SDS011;3236;51.022;6.818;2023-04-24T14:55:29;7.65;;;1.92;;
6406;SDS011;3236;51.022;6.818;2023-04-24T14:57:58;2.55;;;1.77;;
6406;SDS011;3236;51.022;6.818;2023-04-24T15:00:25;4.40;;;2.10;;
6406;SDS011;3236;51.022;6.818;2023-04-24T15:02:52;4.68;;;2.00;;
6406;SDS011;3236;51.022;6.818;2023-04-24T15:05:20;6.28;;;2.67;;
6406;SDS011;3236;51.022;6.818;2023-04-24T15:07:47;7.15;;;2.97;;
6406;SDS011;3236;51.022;6.818;2023-04-24T15:10:15;9.32;;;3.60;;
6406;SDS011;3236;51.022;6.818;2023-04-24T15:12:42;4.45;;;2.33;;
6406;SDS011;3236;51.022;6.818;2023-04-24T15:15:11;8.63;;;3.03;;
6406;SDS011;3236;51.022;6.818;2023-04-24T15:17:38;6.18;;;2.30;;
6406;SDS011;3236;51.022;6.818;2023-04-24T15:20:05;3.67;;;2.53;;
6406;SDS011;3236;51.022;6.818;2023-04-24T15:22:33;7.82;;;2.60;;
6406;SDS011;3236;51.022;6.818;2023-04-24T15:25:00;3.10;;;1.92;;
6406;SDS011;3236;51.022;6.818;2023-04-24T15:27:38;7.70;;;2.45;;
6406;SDS011;3236;51.022;6.818;2023-04-24T15:30:07;3.50;;;2.30;;